createdAt,value
2022-08-19T00:00:15.001Z,99.9
2022-08-19T00:02:17.998Z,99.9
2022-08-19T00:04:21.026Z,99.9
2022-08-19T00:06:25.622Z,99.9
2022-08-19T00:08:28.568Z,99.9
2022-08-19T00:10:31.573Z,99.9
2022-08-19T00:12:46.762Z,99.9
2022-08-19T00:17:46.806Z,99.9
2022-08-19T00:19:49.800Z,99.9
2022-08-19T00:23:55.844Z,99.9
2022-08-19T00:28:05.004Z,99.9
2022-08-19T00:38:35.068Z,99.9
2022-08-19T00:40:26.187Z,99.9
2022-08-19T00:42:29.195Z,99.9
2022-08-19T00:44:32.211Z,99.9
2022-08-19T00:46:35.230Z,99.9
2022-08-19T00:48:38.232Z,99.9
2022-08-19T00:50:52.266Z,99.9
2022-08-19T00:52:44.277Z,99.9
2022-08-19T00:54:52.616Z,99.9
2022-08-19T00:58:56.463Z,99.9
2022-08-19T01:00:59.465Z,99.9
2022-08-19T01:03:02.500Z,99.9
2022-08-19T01:05:05.503Z,99.9
2022-08-19T01:07:08.515Z,99.9
2022-08-19T01:09:14.668Z,99.9
2022-08-19T01:11:17.715Z,99.9
2022-08-19T01:13:20.723Z,99.9
2022-08-19T01:16:26.838Z,99.9
2022-08-19T01:18:29.813Z,99.9
2022-08-19T01:20:32.823Z,99.9
2022-08-19T01:22:38.978Z,99.9
2022-08-19T01:24:49.506Z,99.9
2022-08-19T01:26:45.021Z,99.9
2022-08-19T01:28:48.033Z,99.9
2022-08-19T01:30:51.339Z,99.9
2022-08-19T01:32:54.270Z,99.9
2022-08-19T01:34:57.072Z,99.9
2022-08-19T01:37:03.225Z,99.9
2022-08-19T01:39:06.232Z,99.9
2022-08-19T01:41:09.560Z,99.9
2022-08-19T01:43:12.286Z,99.9
2022-08-19T01:45:15.282Z,99.9
2022-08-19T01:47:18.263Z,99.9
2022-08-19T01:49:21.287Z,99.9
2022-08-19T01:51:27.451Z,99.9
2022-08-19T01:53:30.589Z,99.9
2022-08-19T01:55:33.445Z,99.9
2022-08-19T01:57:36.473Z,99.9
2022-08-19T01:59:39.466Z,99.9
2022-08-19T02:01:42.617Z,99.9
2022-08-19T02:05:51.660Z,99.9
2022-08-19T02:09:57.652Z,99.9
2022-08-19T02:15:06.733Z,99.9
2022-08-19T02:17:09.779Z,99.9
2022-08-19T02:21:18.893Z,99.9
2022-08-19T02:27:27.926Z,99.9
2022-08-19T02:29:30.956Z,99.9
2022-08-19T02:31:33.969Z,99.9
2022-08-19T02:35:43.102Z,99.9
2022-08-19T02:37:46.088Z,99.9
2022-08-19T02:39:49.150Z,99.9
2022-08-19T02:41:52.103Z,99.9
2022-08-19T02:45:58.125Z,99.9
2022-08-19T02:48:10.118Z,99.9
2022-08-19T02:50:07.271Z,99.9
2022-08-19T02:58:19.309Z,99.9
2022-08-19T03:02:28.466Z,99.9
2022-08-19T03:04:31.498Z,99.9
2022-08-19T03:08:58.489Z,99.9
2022-08-19T03:11:01.507Z,99.9
2022-08-19T03:13:04.645Z,99.9
2022-08-19T03:15:10.667Z,99.9
2022-08-19T03:17:13.680Z,99.9
2022-08-19T03:19:16.702Z,99.9
2022-08-19T03:21:19.697Z,99.9
2022-08-19T03:23:22.682Z,99.9
2022-08-19T03:25:25.713Z,99.9
2022-08-19T03:27:34.263Z,99.9
2022-08-19T03:29:34.863Z,99.9
2022-08-19T03:31:44.563Z,99.9
2022-08-19T03:33:40.917Z,99.9
2022-08-19T03:35:43.914Z,99.9
2022-08-19T03:37:46.946Z,99.9
2022-08-19T03:39:50.006Z,99.9
2022-08-19T03:42:32.523Z,99.9
2022-08-19T03:43:59.073Z,99.9
2022-08-19T03:46:02.117Z,99.9
2022-08-19T03:48:05.110Z,99.9
2022-08-19T03:50:08.097Z,99.9
2022-08-19T03:52:11.087Z,99.9
2022-08-19T03:54:14.096Z,99.9
2022-08-19T03:56:17.117Z,99.9
2022-08-19T03:58:23.262Z,99.9
2022-08-19T04:00:26.256Z,99.9
2022-08-19T04:02:29.274Z,99.9
2022-08-19T04:07:38.374Z,99.9
2022-08-19T04:11:47.519Z,99.9
2022-08-19T04:13:50.540Z,99.9
2022-08-19T04:15:53.573Z,99.9
2022-08-19T04:17:56.582Z,99.9
2022-08-19T04:19:59.584Z,99.9
2022-08-19T04:22:02.595Z,99.9
2022-08-19T04:30:17.762Z,99.9
2022-08-19T04:32:20.789Z,99.9
2022-08-19T04:34:23.793Z,99.9
2022-08-19T04:36:26.820Z,99.9
2022-08-19T04:38:29.846Z,99.9
2022-08-19T04:40:35.992Z,99.9
2022-08-19T04:42:38.989Z,99.9
2022-08-19T04:44:46.346Z,99.9
2022-08-19T04:48:49.509Z,99.9
2022-08-19T04:50:51.067Z,99.9
2022-08-19T04:52:54.369Z,99.9
2022-08-19T04:55:00.214Z,99.9
2022-08-19T04:57:03.274Z,99.9
2022-08-19T04:59:06.277Z,99.9
2022-08-19T05:02:12.370Z,99.9
2022-08-19T05:06:18.398Z,99.9
2022-08-19T05:08:30.956Z,99.9
2022-08-19T05:10:27.577Z,99.9
2022-08-19T05:12:30.749Z,99.9
2022-08-19T05:14:33.604Z,99.9
2022-08-19T05:16:36.637Z,99.9
2022-08-19T05:18:39.645Z,99.9
2022-08-19T05:20:42.670Z,99.9
2022-08-19T05:22:49.055Z,99.9
2022-08-19T05:28:57.888Z,99.9
2022-08-19T05:35:06.956Z,99.9
2022-08-19T05:39:16.096Z,99.9
2022-08-19T05:41:19.115Z,99.9
2022-08-19T05:43:22.132Z,99.9
2022-08-19T05:45:25.156Z,99.9
2022-08-19T05:47:28.170Z,99.9
2022-08-19T05:49:31.194Z,99.9
2022-08-19T05:51:37.339Z,99.9
2022-08-19T05:53:40.351Z,99.9
2022-08-19T05:55:43.367Z,99.9
2022-08-19T05:58:49.434Z,99.9
2022-08-19T06:00:54.034Z,99.9
2022-08-19T06:02:57.062Z,99.9
2022-08-19T06:05:03.105Z,99.9
2022-08-19T06:07:12.708Z,99.9
2022-08-19T06:09:09.122Z,99.9
2022-08-19T06:11:12.147Z,99.9
2022-08-19T06:15:18.077Z,99.9
2022-08-19T06:19:27.177Z,99.9
2022-08-19T06:21:30.154Z,99.9
2022-08-19T06:25:36.117Z,99.9
2022-08-19T06:27:48.345Z,99.9
2022-08-19T06:29:42.057Z,99.9
2022-08-19T06:31:45.025Z,99.9
2022-08-19T06:33:51.125Z,99.9
2022-08-19T06:35:54.080Z,99.9
2022-08-19T06:37:57.264Z,99.9
2022-08-19T06:40:00.084Z,99.9
2022-08-19T06:42:02.940Z,99.9
2022-08-19T06:44:05.910Z,99.9
2022-08-19T06:46:08.883Z,99.9
2022-08-19T06:48:14.935Z,99.9
2022-08-19T06:50:17.865Z,99.9
2022-08-19T06:52:20.820Z,99.9
2022-08-19T06:54:55.459Z,99.9
2022-08-19T06:56:47.402Z,99.9
2022-08-19T06:58:50.332Z,99.9
2022-08-19T07:00:56.384Z,99.9
2022-08-19T07:03:01.961Z,99.9
2022-08-19T07:05:02.221Z,99.9
2022-08-19T07:09:08.061Z,99.9
2022-08-19T07:11:10.963Z,99.9
2022-08-19T07:15:19.897Z,99.9
2022-08-19T07:17:22.810Z,99.9
2022-08-19T07:21:29.529Z,99.9
2022-08-19T07:27:37.281Z,99.9
2022-08-19T07:29:43.316Z,99.9
2022-08-19T07:31:46.211Z,99.9
2022-08-19T07:33:49.079Z,99.9
2022-08-19T07:35:51.960Z,99.9
2022-08-19T07:37:55.082Z,99.9
2022-08-19T07:39:57.807Z,99.9
2022-08-19T07:42:00.599Z,99.9
2022-08-19T07:44:06.613Z,99.9
2022-08-19T07:48:12.344Z,99.9
2022-08-19T07:53:21.067Z,99.9
2022-08-19T07:55:42.454Z,99.9
2022-08-19T07:57:29.935Z,99.9
2022-08-19T07:59:32.787Z,99.9
2022-08-19T08:01:35.678Z,99.9
2022-08-19T08:03:38.505Z,99.9
2022-08-19T08:05:43.718Z,99.9
2022-08-19T08:07:46.265Z,99.9
2022-08-19T08:09:50.164Z,99.9
2022-08-19T08:11:53.035Z,99.9
2022-08-19T08:14:00.509Z,99.9
2022-08-19T08:15:58.712Z,99.9
2022-08-19T08:18:01.531Z,99.9
2022-08-19T08:20:04.395Z,99.9
2022-08-19T08:22:07.229Z,99.9
2022-08-19T08:24:10.056Z,99.9
2022-08-19T08:26:16.108Z,99.9
2022-08-19T08:28:18.853Z,99.9
2022-08-19T08:30:21.666Z,99.9
2022-08-19T08:32:24.497Z,99.9
2022-08-19T08:34:27.276Z,99.9
2022-08-19T08:36:30.078Z,99.9
2022-08-19T08:38:38.789Z,99.9
2022-08-19T08:40:38.828Z,99.9
2022-08-19T08:42:41.616Z,99.9
2022-08-19T08:44:44.452Z,99.9
2022-08-19T08:45:47.362Z,99.9
2022-08-19T08:47:50.178Z,99.9
2022-08-19T08:49:52.931Z,99.9
2022-08-19T08:51:59.346Z,99.9
2022-08-19T08:54:01.671Z,99.9
2022-08-19T08:58:07.175Z,99.9
2022-08-19T09:00:15.753Z,87.2
2022-08-19T09:02:12.678Z,88.3
2022-08-19T09:06:18.190Z,96.3
2022-08-19T09:08:24.104Z,96.1
2022-08-19T09:10:26.830Z,96.1
2022-08-19T09:12:29.543Z,94.8
2022-08-19T09:18:37.737Z,78.8
2022-08-19T09:20:41.329Z,78.3
2022-08-19T09:22:46.302Z,99.7
2022-08-19T09:24:49.005Z,90.6
2022-08-19T09:26:52.777Z,99.6
2022-08-19T09:30:57.107Z,99.8
2022-08-19T09:32:59.790Z,99.8
2022-08-19T09:35:02.510Z,99.8
2022-08-19T09:37:08.352Z,99.8
2022-08-19T09:39:16.167Z,99.9
2022-08-19T09:42:30.373Z,99.9
2022-08-19T09:44:19.370Z,99.9
2022-08-19T09:48:24.758Z,99.9
2022-08-19T09:50:31.616Z,99.9
2022-08-19T09:54:37.149Z,99.9
2022-08-19T10:02:47.945Z,99.9
2022-08-19T10:04:53.815Z,99.9
2022-08-19T10:06:56.559Z,99.9
2022-08-19T10:08:59.322Z,99.9
2022-08-19T10:11:27.266Z,99.9
2022-08-19T10:13:04.864Z,99.9
2022-08-19T10:15:07.600Z,99.9
2022-08-19T10:17:20.065Z,99.9
2022-08-19T10:19:16.326Z,99.9
2022-08-19T10:21:19.113Z,99.9
2022-08-19T10:23:21.886Z,99.9
2022-08-19T10:25:24.692Z,99.9
2022-08-19T10:27:27.450Z,99.9
2022-08-19T10:29:33.011Z,99.9
2022-08-19T10:32:02.029Z,99.9
2022-08-19T10:33:53.466Z,99.9
2022-08-19T10:35:42.637Z,99.9
2022-08-19T10:37:57.453Z,99.9
2022-08-19T10:42:04.598Z,99.9
2022-08-19T10:44:07.356Z,99.9
2022-08-19T10:46:14.115Z,99.9
2022-08-19T10:50:18.856Z,99.9
2022-08-19T10:52:23.764Z,99.9
2022-08-19T10:56:27.083Z,99.9
2022-08-19T10:58:29.831Z,99.9
2022-08-19T11:02:38.479Z,99.9
2022-08-19T11:08:46.636Z,99.9
2022-08-19T11:14:57.929Z,97.8
2022-08-19T11:17:00.605Z,98
2022-08-19T11:19:03.277Z,98.4
2022-08-19T11:23:08.600Z,85.4
2022-08-19T11:25:11.274Z,76.3
2022-08-19T11:27:13.671Z,83.2
2022-08-19T11:29:19.258Z,99.8
2022-08-19T11:31:21.795Z,99.8
2022-08-19T11:33:24.301Z,99.8
2022-08-19T11:34:27.103Z,99.8
2022-08-19T11:36:29.600Z,99.8
2022-08-19T11:38:32.273Z,99.1
2022-08-19T11:40:34.567Z,88.8
2022-08-19T11:42:40.147Z,93.3
2022-08-19T11:44:42.605Z,93.4
2022-08-19T11:48:47.507Z,82
2022-08-19T11:52:52.392Z,83.6
2022-08-19T11:54:56.421Z,99.5
2022-08-19T11:57:01.896Z,99.7
2022-08-19T11:59:04.357Z,99.8
2022-08-19T12:01:06.801Z,99.6
2022-08-19T12:03:09.275Z,99.6
2022-08-19T12:05:13.158Z,99.6
2022-08-19T12:07:14.296Z,99.6
2022-08-19T12:09:16.874Z,99.6
2022-08-19T12:11:22.645Z,99.9
2022-08-19T12:13:26.056Z,99.9
2022-08-19T12:15:27.900Z,99.8
2022-08-19T12:17:30.460Z,94.7
2022-08-19T12:19:33.075Z,79.2
2022-08-19T12:21:35.586Z,74
2022-08-19T12:23:38.062Z,73.5
2022-08-19T12:25:43.633Z,84.4
2022-08-19T12:27:52.867Z,73.5
2022-08-19T12:29:48.542Z,72.5
2022-08-19T12:30:51.303Z,72.1
2022-08-19T12:32:53.780Z,71.7
2022-08-19T12:34:56.223Z,71.4
2022-08-19T12:36:58.628Z,90.4
2022-08-19T12:39:04.142Z,82
2022-08-19T12:41:06.519Z,82.2
2022-08-19T12:43:08.941Z,88.2
2022-08-19T12:45:11.335Z,88.3
2022-08-19T12:47:13.715Z,81.7
2022-08-19T12:49:44.467Z,71.3
2022-08-19T12:51:18.479Z,70.3
2022-08-19T12:53:23.919Z,69.2
2022-08-19T12:55:26.293Z,67.1
2022-08-19T12:57:31.836Z,66.8
2022-08-19T12:59:30.981Z,66.3
2022-08-19T13:01:33.318Z,66.3
2022-08-19T13:03:40.340Z,84
2022-08-19T13:05:38.014Z,92.9
2022-08-19T13:07:43.445Z,86.6
2022-08-19T13:09:45.831Z,78.3
2022-08-19T13:11:48.198Z,96.9
2022-08-19T13:13:50.607Z,96.1
2022-08-19T13:15:53.053Z,99.6
2022-08-19T13:17:55.649Z,90.8
2022-08-19T13:19:57.912Z,89.8
2022-08-19T13:22:03.430Z,85.9
2022-08-19T13:24:05.901Z,86.6
2022-08-19T13:26:08.354Z,86.9
2022-08-19T13:27:11.155Z,93.2
2022-08-19T13:29:13.702Z,99.4
2022-08-19T13:31:16.308Z,99.6
2022-08-19T13:33:18.892Z,99.7
2022-08-19T13:35:24.685Z,99.8
2022-08-19T13:37:27.293Z,99.7
2022-08-19T13:43:35.451Z,99.7
2022-08-19T13:45:37.900Z,99.7
2022-08-19T13:47:40.575Z,99.7
2022-08-19T13:49:46.433Z,99.9
2022-08-19T13:51:49.140Z,99.9
2022-08-19T13:53:51.844Z,99.9
2022-08-19T13:55:54.633Z,99.9
2022-08-19T13:57:57.340Z,99.9
2022-08-19T13:59:59.973Z,99.9
2022-08-19T14:02:02.726Z,99.9
2022-08-19T14:04:08.587Z,99.9
2022-08-19T14:08:14.068Z,99.9
2022-08-19T14:10:16.838Z,99.9
2022-08-19T14:12:28.716Z,99.9
2022-08-19T14:14:22.389Z,99.9
2022-08-19T14:16:25.180Z,99.9
2022-08-19T14:18:31.158Z,99.9
2022-08-19T14:20:33.934Z,99.9
2022-08-19T14:25:05.843Z,99.9
2022-08-19T14:27:08.641Z,99.9
2022-08-19T14:29:11.478Z,99.9
2022-08-19T14:31:17.471Z,99.9
2022-08-19T14:33:20.308Z,99.9
2022-08-19T14:35:23.150Z,99.9
2022-08-19T14:43:34.595Z,99.9
2022-08-19T14:47:45.355Z,99.9
2022-08-19T14:55:55.061Z,99.9
2022-08-19T14:57:58.053Z,99.9
2022-08-19T15:00:03.999Z,99.9
2022-08-19T15:02:33.978Z,99.9
2022-08-19T15:04:09.825Z,99.9
2022-08-19T15:06:13.224Z,99.9
2022-08-19T15:08:15.677Z,99.9
2022-08-19T15:10:18.588Z,99.9
2022-08-19T15:12:22.144Z,99.9
2022-08-19T15:14:27.603Z,99.9
2022-08-19T15:16:30.545Z,99.9
2022-08-19T15:18:33.518Z,99.9
2022-08-19T15:19:36.547Z,99.9
2022-08-19T15:21:39.508Z,99.9
2022-08-19T15:25:45.394Z,99.9
2022-08-19T15:27:51.478Z,99.9
2022-08-19T15:30:00.979Z,99.9
2022-08-19T15:31:57.382Z,99.9
2022-08-19T15:36:03.309Z,99.9
2022-08-19T15:38:06.236Z,99.9
2022-08-19T15:40:09.188Z,99.9
2022-08-19T15:42:15.248Z,99.9
2022-08-19T15:44:18.190Z,99.9
2022-08-19T15:46:21.144Z,99.9
2022-08-19T15:48:24.075Z,99.9
2022-08-19T15:50:27.026Z,99.9
2022-08-19T15:52:29.958Z,99.9
2022-08-19T16:00:44.833Z,99.9
2022-08-19T16:02:47.813Z,99.9
2022-08-19T16:06:53.657Z,99.9
2022-08-19T16:11:02.644Z,99.9
2022-08-19T16:13:05.589Z,99.9
2022-08-19T16:16:11.525Z,99.9
2022-08-19T16:18:14.474Z,99.9
2022-08-19T16:20:17.394Z,99.9
2022-08-19T16:22:20.314Z,99.9
2022-08-19T16:24:26.385Z,99.9
2022-08-19T16:26:29.288Z,99.9
2022-08-19T16:28:32.234Z,99.9
2022-08-19T16:30:35.140Z,99.9
2022-08-19T16:32:38.063Z,99.9
2022-08-19T16:34:40.972Z,99.9
2022-08-19T16:36:43.896Z,99.9
2022-08-19T16:38:49.967Z,99.9
2022-08-19T16:40:52.888Z,99.9
2022-08-19T16:42:55.780Z,99.9
2022-08-19T16:44:58.709Z,99.9
2022-08-19T16:47:01.631Z,99.9
2022-08-19T16:49:04.527Z,99.9
2022-08-19T16:51:07.447Z,99.9
2022-08-19T16:53:13.502Z,99.9
2022-08-19T16:55:16.408Z,99.9
2022-08-19T16:57:19.310Z,99.9
2022-08-19T16:59:22.230Z,99.9
2022-08-19T17:01:25.192Z,99.9
2022-08-19T17:03:35.774Z,99.9
2022-08-19T17:05:30.955Z,99.9
2022-08-19T17:07:36.987Z,99.9
2022-08-19T17:09:39.888Z,99.9
2022-08-19T17:11:42.816Z,99.9
2022-08-19T17:12:45.822Z,99.9
2022-08-19T17:14:48.740Z,99.9
2022-08-19T17:16:51.640Z,99.9
2022-08-19T17:18:54.537Z,99.9
2022-08-19T17:21:00.593Z,99.9
2022-08-19T17:23:03.494Z,99.9
2022-08-19T17:25:06.421Z,99.9
2022-08-19T17:27:09.339Z,99.9
2022-08-19T17:29:12.262Z,99.9
2022-08-19T17:31:15.177Z,99.9
2022-08-19T17:33:18.099Z,99.9
2022-08-19T17:37:27.055Z,99.9
2022-08-19T17:39:29.989Z,99.9
2022-08-19T17:41:32.927Z,99.9
2022-08-19T17:43:40.000Z,99.9
2022-08-19T17:45:38.771Z,99.9
2022-08-19T17:47:41.704Z,99.9
2022-08-19T17:49:49.308Z,99.9
2022-08-19T17:51:52.242Z,99.9
2022-08-19T17:53:55.165Z,99.9
2022-08-19T17:55:58.109Z,99.9
2022-08-19T17:58:01.033Z,99.9
2022-08-19T18:00:06.300Z,99.9
2022-08-19T18:02:06.926Z,99.9
2022-08-19T18:04:12.945Z,99.9
2022-08-19T18:08:18.843Z,99.9
2022-08-19T18:12:45.168Z,99.9
2022-08-19T18:14:48.115Z,99.9
2022-08-19T18:16:54.178Z,99.9
2022-08-19T18:18:57.156Z,99.9
2022-08-19T18:21:00.014Z,99.9
2022-08-19T18:23:45.532Z,99.9
2022-08-19T18:29:11.750Z,99.9
2022-08-19T18:31:17.820Z,99.9
2022-08-19T18:33:20.756Z,99.9
2022-08-19T18:35:23.703Z,99.9
2022-08-19T18:37:26.626Z,99.9
2022-08-19T18:39:29.594Z,99.9
2022-08-19T18:41:32.499Z,99.9
2022-08-19T18:43:35.420Z,99.9
2022-08-19T18:45:43.538Z,99.9
2022-08-19T18:47:44.441Z,99.9
2022-08-19T18:49:47.400Z,99.9
2022-08-19T18:51:50.333Z,99.9
2022-08-19T18:53:53.283Z,99.9
2022-08-19T18:55:56.244Z,99.9
2022-08-19T18:57:59.222Z,99.9
2022-08-19T19:00:05.279Z,99.9
2022-08-19T19:02:08.213Z,99.9
2022-08-19T19:04:11.196Z,99.9
2022-08-19T19:05:14.255Z,99.9
2022-08-19T19:07:17.172Z,99.9
2022-08-19T19:09:20.103Z,99.9
2022-08-19T19:11:23.064Z,99.9
2022-08-19T19:13:29.123Z,99.9
2022-08-19T19:15:32.085Z,99.9
2022-08-19T19:17:35.022Z,99.9
2022-08-19T19:19:37.965Z,99.9
2022-08-19T19:21:40.893Z,99.9
2022-08-19T19:23:43.854Z,99.9
2022-08-19T19:25:50.285Z,99.9
2022-08-19T19:27:52.887Z,99.9
2022-08-19T19:29:55.841Z,99.9
2022-08-19T19:31:58.770Z,99.9
2022-08-19T19:34:01.692Z,99.9
2022-08-19T19:38:07.556Z,99.9
2022-08-19T19:42:19.673Z,99.9
2022-08-19T19:44:30.183Z,99.9
2022-08-19T19:46:22.421Z,99.9
2022-08-19T19:48:25.364Z,99.9
2022-08-19T19:50:28.314Z,99.9
2022-08-19T19:54:34.178Z,99.9
2022-08-19T19:58:43.191Z,99.9
2022-08-19T20:00:46.172Z,99.9
2022-08-19T20:01:49.229Z,99.9
2022-08-19T20:03:52.100Z,99.9
2022-08-19T20:05:55.066Z,99.9
2022-08-19T20:07:58.006Z,99.9
2022-08-19T20:10:04.089Z,99.9
2022-08-19T20:14:09.951Z,99.9
2022-08-19T20:16:12.891Z,99.9
2022-08-19T20:18:15.831Z,99.9
2022-08-19T20:20:18.776Z,99.9
2022-08-19T20:22:21.865Z,99.9
2022-08-19T20:24:27.788Z,99.9
2022-08-19T20:28:33.688Z,99.9
2022-08-19T20:30:36.636Z,99.9
2022-08-19T20:34:42.516Z,99.9
2022-08-19T20:36:45.459Z,99.9
2022-08-19T20:40:54.472Z,99.9
2022-08-19T20:42:57.444Z,99.9
2022-08-19T20:45:00.443Z,99.9
2022-08-19T20:47:04.199Z,99.9
2022-08-19T20:49:06.293Z,99.9
2022-08-19T20:51:09.252Z,99.9
2022-08-19T20:53:15.336Z,99.9
2022-08-19T20:55:18.465Z,99.9
2022-08-19T20:57:21.221Z,99.9
2022-08-19T20:58:24.311Z,99.9
2022-08-19T21:00:27.229Z,99.9
2022-08-19T21:02:30.176Z,99.9
2022-08-19T21:04:33.109Z,99.9
2022-08-19T21:06:39.178Z,99.9
2022-08-19T21:08:42.147Z,99.9
2022-08-19T21:10:45.099Z,99.9
2022-08-19T21:12:48.055Z,99.9
2022-08-19T21:14:51.015Z,99.9
2022-08-19T21:16:53.984Z,99.9
2022-08-19T21:18:56.965Z,99.9
2022-08-19T21:21:03.051Z,99.9
2022-08-19T21:23:06.006Z,99.9
2022-08-19T21:25:08.978Z,99.9
2022-08-19T21:27:11.950Z,99.9
2022-08-19T21:29:14.896Z,99.9
2022-08-19T21:31:17.903Z,99.9
2022-08-19T21:33:20.859Z,99.9
2022-08-19T21:35:26.911Z,99.9
2022-08-19T21:37:29.870Z,99.9
2022-08-19T21:39:32.884Z,99.9
2022-08-19T21:41:35.826Z,99.9
2022-08-19T21:43:38.786Z,99.9
2022-08-19T21:45:41.749Z,99.9
2022-08-19T21:47:44.721Z,99.9
2022-08-19T21:49:50.801Z,99.9
2022-08-19T21:51:53.775Z,99.9
2022-08-19T21:56:24.200Z,99.9
2022-08-19T21:58:28.387Z,99.9
2022-08-19T22:00:30.309Z,99.9
2022-08-19T22:02:36.222Z,99.9
2022-08-19T22:04:39.196Z,99.9
2022-08-19T22:06:42.182Z,99.9
2022-08-19T22:10:48.136Z,99.9
2022-08-19T22:12:51.105Z,99.9
2022-08-19T22:14:54.070Z,99.9
2022-08-19T22:17:00.191Z,99.9
2022-08-19T22:19:03.160Z,99.9
2022-08-19T22:23:09.101Z,99.9
2022-08-19T22:25:12.123Z,99.9
2022-08-19T22:29:18.056Z,99.9
2022-08-19T22:33:27.133Z,99.9
2022-08-19T22:35:30.105Z,99.9
2022-08-19T22:37:33.067Z,99.9
2022-08-19T22:39:36.122Z,99.9
2022-08-19T22:41:39.049Z,99.9
2022-08-19T22:43:42.015Z,99.9
2022-08-19T22:45:48.115Z,99.9
2022-08-19T22:47:51.199Z,99.9
2022-08-19T22:49:54.088Z,99.9
2022-08-19T22:50:57.135Z,99.9
2022-08-19T22:53:00.138Z,99.9
2022-08-19T22:59:12.167Z,99.9
2022-08-19T23:03:18.085Z,99.9
2022-08-19T23:11:29.987Z,99.9
2022-08-19T23:15:39.077Z,99.9
2022-08-19T23:17:42.055Z,99.9
2022-08-19T23:19:45.021Z,99.9
2022-08-19T23:21:48.014Z,99.9
2022-08-19T23:23:50.985Z,99.9
2022-08-19T23:25:53.958Z,99.9
2022-08-19T23:28:00.025Z,99.9
2022-08-19T23:30:03.013Z,99.9
2022-08-19T23:32:05.992Z,99.9
2022-08-19T23:34:08.958Z,99.9
2022-08-19T23:36:11.920Z,99.9
2022-08-19T23:44:28.448Z,99.9
2022-08-19T23:46:31.442Z,99.9
2022-08-19T23:47:34.511Z,99.9
2022-08-19T23:51:40.470Z,99.9
2022-08-19T23:53:43.447Z,99.9
2022-08-19T23:55:49.554Z,99.9
2022-08-19T23:57:52.519Z,99.9
2022-08-19T23:59:55.486Z,99.9
